Time;durP1;ratioP1;P1;durP2;ratioP2;P2;SDS_P1;SDS_P2;PMS_P1;PMS_P2;Temp;Humidity;BMP_temperature;BMP_pressure;BME280_temperature;BME280_humidity;BME280_pressure;Samples;Min_cycle;Max_cycle;Signal;HPM_P1;HPM_P2
2021/07/12 00:00:45;;;;;;;6.10;4.28;;;;;;;16.15;75.87;99422.91;4990161;28;20165;-67
2021/07/12 00:03:10;;;;;;;7.28;5.43;;;;;;;16.14;75.74;99423.84;4989884;28;20042;-67
2021/07/12 00:05:36;;;;;;;5.40;4.30;;;;;;;16.16;75.53;99423.72;4990150;28;20107;-67
2021/07/12 00:08:01;;;;;;;5.75;5.15;;;;;;;16.19;75.71;99427.00;4989512;28;20053;-67
2021/07/12 00:10:28;;;;;;;4.90;3.97;;;;;;;16.20;75.47;99417.22;4989836;28;20665;-67
2021/07/12 00:12:54;;;;;;;7.05;5.13;;;;;;;16.22;75.58;99413.47;4989996;28;20383;-68
2021/07/12 00:15:22;;;;;;;8.60;5.65;;;;;;;16.21;75.33;99416.25;4989993;28;20041;-68
2021/07/12 00:17:48;;;;;;;6.53;5.18;;;;;;;16.16;75.46;99415.75;4989838;28;20038;-68
2021/07/12 00:20:15;;;;;;;6.22;4.32;;;;;;;16.14;75.43;99413.22;4990302;28;20124;-68
2021/07/12 00:22:41;;;;;;;7.00;3.60;;;;;;;16.19;75.15;99408.38;4989722;28;20034;-67
2021/07/12 00:25:08;;;;;;;7.78;3.47;;;;;;;16.24;75.04;99408.00;4989535;28;20095;-67
2021/07/12 00:27:34;;;;;;;6.50;4.60;;;;;;;16.21;75.08;99403.78;4989475;28;20141;-67
2021/07/12 00:30:03;;;;;;;5.28;4.68;;;;;;;16.16;75.07;99399.81;4989841;28;20066;-67
2021/07/12 00:32:28;;;;;;;5.90;3.97;;;;;;;16.19;74.85;99403.06;4989721;28;20065;-67
2021/07/12 00:34:54;;;;;;;6.00;4.32;;;;;;;16.15;74.73;99390.97;4989603;28;20113;-67
2021/07/12 00:37:19;;;;;;;5.20;3.92;;;;;;;16.14;74.91;99391.94;4989406;28;20042;-67
2021/07/12 00:39:44;;;;;;;5.68;4.07;;;;;;;16.18;74.86;99381.91;4990238;28;20030;-66
2021/07/12 00:42:10;;;;;;;5.18;4.47;;;;;;;16.20;74.81;99378.16;4991630;28;20030;-66
2021/07/12 00:44:36;;;;;;;5.50;5.00;;;;;;;16.21;74.56;99379.00;4989600;28;20034;-67
2021/07/12 00:47:01;;;;;;;11.93;5.30;;;;;;;16.21;74.42;99385.16;4993070;28;20062;-67
2021/07/12 00:49:27;;;;;;;4.90;4.15;;;;;;;16.19;74.56;99383.59;4993594;28;20054;-66
2021/07/12 00:51:54;;;;;;;5.32;4.28;;;;;;;16.13;75.03;99379.63;4993542;28;20041;-67
2021/07/12 00:54:26;;;;;;;7.15;5.40;;;;;;;16.07;75.33;99377.41;4993540;28;20038;-67
2021/07/12 00:56:52;;;;;;;6.65;5.13;;;;;;;16.00;75.46;99381.56;4993054;28;20061;-67
2021/07/12 00:59:18;;;;;;;5.55;3.90;;;;;;;15.96;75.83;99375.63;4975934;28;20038;-67
2021/07/12 01:01:43;;;;;;;6.03;5.18;;;;;;;15.92;76.02;99370.66;4968168;28;20027;-68
2021/07/12 01:04:09;;;;;;;5.65;4.80;;;;;;;15.87;76.00;99368.34;4993157;28;20116;-67
2021/07/12 01:06:34;;;;;;;5.53;3.97;;;;;;;15.84;76.27;99363.28;4993072;28;20061;-68
2021/07/12 01:08:59;;;;;;;5.13;4.60;;;;;;;15.79;75.84;99357.47;4993648;28;20038;-68
2021/07/12 01:11:52;;;;;;;13.55;5.22;;;;;;;15.79;75.91;99360.13;5002594;28;20037;-65
2021/07/12 01:14:42;;;;;;;5.07;4.50;;;;;;;15.79;75.97;99358.31;5012524;28;20065;-67
2021/07/12 01:17:18;;;;;;;5.57;4.32;;;;;;;15.76;76.04;99360.38;5013138;28;20041;-68
2021/07/12 01:19:51;;;;;;;5.57;4.60;;;;;;;15.75;75.93;99356.88;5013666;28;20037;-69
2021/07/12 01:23:04;;;;;;;5.35;4.05;;;;;;;15.72;76.33;99362.41;5014436;28;20465;-68
2021/07/12 01:26:08;;;;;;;6.72;4.68;;;;;;;15.69;76.19;99349.34;4932594;29;20055;-68
2021/07/12 01:28:49;;;;;;;6.47;4.32;;;;;;;15.71;76.27;99355.41;4983062;28;20110;-68
2021/07/12 01:31:39;;;;;;;8.80;5.25;;;;;;;15.70;75.92;99352.88;5012159;28;20512;-68
2021/07/12 01:34:12;;;;;;;6.28;3.67;;;;;;;15.71;75.71;99357.22;5012232;28;20569;-68
2021/07/12 01:36:57;;;;;;;4.30;3.83;;;;;;;15.76;75.43;99350.59;5008869;28;20046;-68
2021/07/12 01:39:30;;;;;;;11.07;5.05;;;;;;;15.74;75.61;99346.38;5011472;28;20042;-69
2021/07/12 01:42:06;;;;;;;6.15;4.65;;;;;;;15.74;75.61;99347.19;4995158;28;20057;-67
2021/07/12 01:44:39;;;;;;;;;;;;;;;15.70;75.69;99355.53;5012843;28;20061;-69
2021/07/12 01:47:18;;;;;;;4.93;4.07;;;;;;;15.67;75.72;99353.91;5011806;28;19917;-68
2021/07/12 01:49:55;;;;;;;10.55;4.70;;;;;;;15.63;75.97;99349.81;5011876;28;20113;-67
2021/07/12 01:52:44;;;;;;;5.50;3.85;;;;;;;15.57;76.33;99342.31;5011845;28;20120;-68
2021/07/12 01:55:54;;;;;;;15.20;4.28;;;;;;;15.53;76.31;99344.38;5011690;28;20034;-69
2021/07/12 01:58:26;;;;;;;6.63;4.38;;;;;;;15.52;76.33;99337.34;4933213;28;20041;-69
2021/07/12 02:00:52;;;;;;;5.05;4.45;;;;;;;15.46;76.59;99335.19;5011724;28;20034;-68
2021/07/12 02:03:20;;;;;;;6.88;5.00;;;;;;;15.43;76.69;99336.25;5011472;28;20100;-68
2021/07/12 02:05:46;;;;;;;6.05;5.00;;;;;;;15.41;76.46;99335.53;5011928;28;20033;-69
2021/07/12 02:08:17;;;;;;;5.38;4.07;;;;;;;15.36;76.86;99332.38;5011467;28;20124;-68
2021/07/12 02:10:44;;;;;;;8.52;5.07;;;;;;;15.36;76.62;99328.88;5011693;28;20025;-69
2021/07/12 02:13:10;;;;;;;4.93;4.43;;;;;;;15.33;76.98;99310.50;5011605;28;20037;-69
2021/07/12 02:15:36;;;;;;;4.05;3.53;;;;;;;15.36;76.58;99313.78;5011867;28;20057;-68
2021/07/12 02:18:04;;;;;;;5.60;4.05;;;;;;;15.38;76.40;99306.56;5011441;28;20120;-68
2021/07/12 02:20:31;;;;;;;5.22;4.00;;;;;;;15.39;76.30;99310.06;5011308;28;20030;-69
2021/07/12 02:22:56;;;;;;;5.50;3.60;;;;;;;15.39;76.25;99310.88;5011275;28;20452;-69
2021/07/12 02:25:23;;;;;;;3.80;3.00;;;;;;;15.39;76.13;99302.06;5011292;28;20124;-69
2021/07/12 02:27:49;;;;;;;5.57;3.28;;;;;;;15.38;76.27;99297.72;5011204;28;20044;-69
2021/07/12 02:30:15;;;;;;;5.43;4.20;;;;;;;15.41;76.13;99308.13;5011490;28;20573;-69
2021/07/12 02:32:42;;;;;;;5.07;4.00;;;;;;;15.43;76.15;99300.84;5011147;28;20513;-67
2021/07/12 02:35:12;;;;;;;6.93;3.58;;;;;;;15.44;76.08;99302.56;5007820;28;20121;-67
2021/07/12 02:37:39;;;;;;;10.45;3.70;;;;;;;15.44;76.03;99294.59;5010916;28;20536;-67
2021/07/12 02:40:08;;;;;;;5.13;3.67;;;;;;;15.43;76.11;99295.53;5011541;28;20092;-68
2021/07/12 02:42:35;;;;;;;4.85;2.95;;;;;;;15.43;76.36;99299.06;5010771;28;20062;-68
2021/07/12 02:45:01;;;;;;;4.10;3.28;;;;;;;15.43;76.21;99299.06;5010877;28;20038;-69
2021/07/12 02:47:26;;;;;;;6.00;3.00;;;;;;;15.45;76.24;99301.59;5010748;28;20072;-68
2021/07/12 02:49:52;;;;;;;4.15;3.50;;;;;;;15.46;75.89;99303.31;5010707;28;20415;-68
2021/07/12 02:52:21;;;;;;;9.43;3.92;;;;;;;15.50;75.92;99309.22;5010554;28;20029;-69
2021/07/12 02:54:50;;;;;;;5.70;3.60;;;;;;;15.46;76.12;99305.97;5011007;28;20033;-68
2021/07/12 02:57:15;;;;;;;5.38;3.88;;;;;;;15.41;76.23;99298.34;4992398;28;20493;-69
2021/07/12 02:59:40;;;;;;;7.95;3.78;;;;;;;15.42;76.29;99296.53;5010546;28;20121;-70
2021/07/12 03:02:06;;;;;;;5.45;3.70;;;;;;;15.43;76.12;99292.88;5010743;28;20030;-66
2021/07/12 03:04:31;;;;;;;6.10;3.63;;;;;;;15.41;76.17;99286.88;5010639;28;20033;-68
2021/07/12 03:07:01;;;;;;;4.25;3.47;;;;;;;15.37;76.20;99275.63;5010419;28;20417;-67
2021/07/12 03:09:33;;;;;;;7.35;4.30;;;;;;;15.37;76.11;99272.13;5010491;28;20436;-68
2021/07/12 03:12:06;;;;;;;6.40;3.60;;;;;;;15.31;76.36;99284.09;5010167;28;20386;-67
2021/07/12 03:14:38;;;;;;;7.78;3.30;;;;;;;15.27;76.22;99279.97;5010278;28;20512;-68
2021/07/12 03:17:07;;;;;;;10.40;3.90;;;;;;;15.25;76.44;99276.56;5010230;28;20450;-68
2021/07/12 03:19:35;;;;;;;5.22;3.58;;;;;;;15.27;76.26;99281.78;5010503;28;20034;-67
2021/07/12 03:22:04;;;;;;;4.68;3.65;;;;;;;15.27;76.25;99279.13;5010211;28;20497;-67
2021/07/12 03:24:31;;;;;;;4.43;3.40;;;;;;;15.22;76.42;99282.13;5010174;28;20045;-68
2021/07/12 03:26:59;;;;;;;5.35;3.67;;;;;;;15.20;76.46;99271.59;5010177;28;20037;-67
2021/07/12 03:29:28;;;;;;;8.20;3.97;;;;;;;15.23;76.32;99265.22;5010257;28;20444;-68
2021/07/12 03:31:55;;;;;;;3.63;3.00;;;;;;;15.24;76.45;99264.25;5009931;28;20426;-68
2021/07/12 03:34:21;;;;;;;5.38;3.78;;;;;;;15.23;76.04;99258.13;4992446;28;20035;-67
2021/07/12 03:36:48;;;;;;;5.88;3.40;;;;;;;15.22;76.26;99253.75;5008499;28;20512;-68
2021/07/12 03:39:15;;;;;;;4.20;3.25;;;;;;;15.21;76.20;99249.41;5007971;28;20044;-68
2021/07/12 03:41:41;;;;;;;4.60;3.38;;;;;;;15.12;76.43;99252.78;5009850;28;20042;-68
2021/07/12 03:44:07;;;;;;;5.10;3.63;;;;;;;15.12;76.18;99242.16;5009740;28;20042;-69
2021/07/12 03:46:32;;;;;;;3.50;2.83;;;;;;;15.13;76.17;99243.00;5010285;28;20049;-68
2021/07/12 03:48:58;;;;;;;3.88;2.90;;;;;;;15.17;75.95;99245.28;5009969;28;20359;-69
2021/07/12 03:51:26;;;;;;;5.82;2.80;;;;;;;15.21;75.79;99251.19;5009873;28;20493;-68
2021/07/12 03:53:52;;;;;;;6.70;3.70;;;;;;;15.16;76.28;99248.06;4992326;28;20026;-68
2021/07/12 03:56:17;;;;;;;6.03;3.15;;;;;;;15.15;76.17;99257.00;5009298;28;20048;-67
2021/07/12 03:58:44;;;;;;;3.25;2.50;;;;;;;15.16;76.30;99254.25;5009524;28;20038;-69
2021/07/12 04:01:10;;;;;;;3.80;3.00;;;;;;;15.19;76.00;99258.47;5009799;28;20041;-67
2021/07/12 04:03:35;;;;;;;4.22;3.15;;;;;;;15.17;76.08;99258.56;5009922;28;20443;-69
2021/07/12 04:06:00;;;;;;;3.67;2.80;;;;;;;15.18;76.18;99254.94;5009691;28;20033;-69
2021/07/12 04:08:26;;;;;;;4.85;3.13;;;;;;;15.23;75.77;99243.97;5009243;28;20046;-68
2021/07/12 04:10:51;;;;;;;5.68;3.40;;;;;;;15.27;75.51;99250.75;5009630;28;20108;-69
2021/07/12 04:13:16;;;;;;;3.97;3.35;;;;;;;15.30;75.61;99247.00;4991729;28;20037;-69
2021/07/12 04:15:43;;;;;;;4.40;2.90;;;;;;;15.34;75.31;99251.97;5009375;28;20030;-69
2021/07/12 04:18:09;;;;;;;4.97;3.30;;;;;;;15.34;75.50;99245.81;4991434;28;20042;-69
2021/07/12 04:20:35;;;;;;;8.48;3.88;;;;;;;15.33;75.71;99242.28;5009364;28;20030;-68
2021/07/12 04:23:01;;;;;;;5.68;3.05;;;;;;;15.35;75.43;99242.19;5009205;28;20404;-68
2021/07/12 04:25:27;;;;;;;7.45;3.28;;;;;;;15.38;75.60;99240.16;5009736;28;20046;-68
2021/07/12 04:27:52;;;;;;;5.47;3.53;;;;;;;15.41;75.57;99237.25;5006218;28;20049;-67
2021/07/12 04:30:18;;;;;;;5.85;3.00;;;;;;;15.42;75.42;99230.94;5009516;28;20057;-69
2021/07/12 04:32:44;;;;;;;3.40;2.65;;;;;;;15.44;75.63;99231.69;5009434;28;20065;-69
2021/07/12 04:35:11;;;;;;;4.15;2.70;;;;;;;15.51;75.56;99234.72;5009799;28;20421;-69
2021/07/12 04:37:37;;;;;;;6.68;3.03;;;;;;;15.57;75.15;99244.84;5009628;28;20045;-69
2021/07/12 04:40:03;;;;;;;5.03;2.65;;;;;;;15.65;75.32;99239.78;5009913;28;20065;-69
2021/07/12 04:42:29;;;;;;;4.70;3.22;;;;;;;15.71;74.86;99238.47;4991615;28;20045;-69
2021/07/12 04:44:55;;;;;;;4.78;3.08;;;;;;;15.82;75.11;99240.28;5009420;28;20040;-69
2021/07/12 04:47:20;;;;;;;6.60;3.25;;;;;;;15.89;74.60;99236.16;5008772;28;20121;-68
2021/07/12 04:49:45;;;;;;;5.10;3.08;;;;;;;15.93;74.73;99240.28;4991753;28;20030;-68
2021/07/12 04:52:11;;;;;;;3.13;2.72;;;;;;;15.98;74.43;99242.56;5009424;28;20034;-67
2021/07/12 04:54:36;;;;;;;5.20;3.60;;;;;;;16.02;74.09;99236.88;5009716;28;20080;-68
2021/07/12 04:57:02;;;;;;;3.17;2.30;;;;;;;16.08;73.67;99231.06;5009081;28;20038;-68
2021/07/12 04:59:28;;;;;;;6.03;2.83;;;;;;;16.17;73.64;99232.16;5009166;28;20054;-67
2021/07/12 05:01:54;;;;;;;4.40;2.70;;;;;;;16.25;73.68;99228.84;5008920;28;20512;-68
2021/07/12 05:04:20;;;;;;;3.45;2.40;;;;;;;16.34;73.29;99228.06;5008642;28;20046;-68
2021/07/12 05:06:45;;;;;;;3.50;2.28;;;;;;;16.42;73.31;99220.34;5008876;28;20034;-68
2021/07/12 05:09:11;;;;;;;5.40;3.05;;;;;;;16.49;72.97;99229.50;4991582;28;20041;-67
2021/07/12 05:11:36;;;;;;;3.85;2.83;;;;;;;16.52;73.41;99228.41;5009624;28;20034;-67
2021/07/12 05:14:02;;;;;;;6.18;3.00;;;;;;;16.55;72.86;99219.31;5008948;28;20145;-68
2021/07/12 05:16:27;;;;;;;6.63;3.25;;;;;;;16.55;72.73;99214.00;5008854;28;20080;-68
2021/07/12 05:18:54;;;;;;;9.38;4.10;;;;;;;16.57;73.45;99220.03;5008734;28;20037;-69
2021/07/12 05:21:20;;;;;;;6.95;3.33;;;;;;;16.61;73.64;99222.28;5008969;28;20520;-67
2021/07/12 05:23:45;;;;;;;7.85;3.85;;;;;;;16.62;74.19;99209.84;5008830;28;20037;-68
2021/07/12 05:26:11;;;;;;;5.55;3.45;;;;;;;16.69;73.98;99217.19;5008881;28;20100;-68
2021/07/12 05:28:37;;;;;;;5.55;3.83;;;;;;;16.77;73.12;99211.22;5009487;28;20121;-68
2021/07/12 05:31:04;;;;;;;8.27;4.28;;;;;;;16.89;73.06;99210.22;5009061;28;20033;-67
2021/07/12 05:33:29;;;;;;;6.43;3.60;;;;;;;17.03;72.64;99211.72;5012041;28;20034;-65
2021/07/12 05:35:54;;;;;;;5.13;3.72;;;;;;;17.14;72.16;99208.13;5010912;28;20053;-67
2021/07/12 05:38:20;;;;;;;4.50;3.42;;;;;;;17.23;72.40;99210.00;4992503;28;20092;-66
2021/07/12 05:40:45;;;;;;;3.90;3.30;;;;;;;17.34;72.15;99209.06;4992241;28;20057;-65
2021/07/12 05:43:11;;;;;;;8.98;5.10;;;;;;;17.49;71.38;99212.22;4992509;28;20042;-67
2021/07/12 05:45:36;;;;;;;3.97;3.03;;;;;;;17.62;71.29;99206.66;4993300;28;20034;-67
2021/07/12 05:48:01;;;;;;;7.97;4.05;;;;;;;17.75;70.53;99197.44;4974778;28;20498;-68
2021/07/12 05:50:27;;;;;;;6.80;3.38;;;;;;;17.88;70.21;99191.06;4992529;28;20042;-68
2021/07/12 05:52:53;;;;;;;8.98;3.88;;;;;;;17.95;69.86;99193.03;4992433;28;20036;-68
2021/07/12 05:55:18;;;;;;;7.10;3.95;;;;;;;18.02;69.31;99191.50;4992758;28;20494;-68
2021/07/12 05:57:43;;;;;;;7.63;3.95;;;;;;;18.06;69.28;99183.22;4974473;28;20121;-68
2021/07/12 06:00:11;;;;;;;4.45;3.53;;;;;;;18.12;69.69;99188.03;4992316;28;20383;-68
2021/07/12 06:02:36;;;;;;;7.38;3.85;;;;;;;18.17;69.19;99196.47;4992354;28;20038;-67
2021/07/12 06:05:03;;;;;;;6.90;3.78;;;;;;;18.21;68.96;99192.50;4992280;28;20040;-68
2021/07/12 06:07:28;;;;;;;6.45;3.95;;;;;;;18.28;67.73;99200.81;4991736;28;20038;-66
2021/07/12 06:09:53;;;;;;;5.50;3.50;;;;;;;18.38;68.14;99196.31;4992010;28;20084;-65
2021/07/12 06:12:19;;;;;;;6.00;4.10;;;;;;;18.47;66.97;99190.16;4991895;28;20560;-68
2021/07/12 06:14:44;;;;;;;10.38;4.50;;;;;;;18.51;66.38;99188.91;4991652;28;20490;-68
2021/07/12 06:17:09;;;;;;;8.45;3.80;;;;;;;18.58;66.50;99184.69;4991320;28;20100;-68
2021/07/12 06:19:35;;;;;;;6.53;3.83;;;;;;;18.69;66.34;99173.00;4991356;28;20104;-69
2021/07/12 06:22:00;;;;;;;10.65;4.18;;;;;;;18.84;65.92;99176.94;4994059;28;20130;-68
2021/07/12 06:24:26;;;;;;;7.22;4.28;;;;;;;19.05;64.55;99174.09;4991612;28;20038;-67
2021/07/12 06:26:51;;;;;;;5.22;3.42;;;;;;;19.18;64.57;99172.94;4990403;28;20040;-67
2021/07/12 06:29:17;;;;;;;8.40;3.80;;;;;;;19.29;63.83;99173.56;4991556;28;20130;-67
2021/07/12 06:31:42;;;;;;;4.78;3.28;;;;;;;19.38;63.28;99176.38;4991434;28;20034;-67
2021/07/12 06:34:08;;;;;;;9.27;3.17;;;;;;;19.47;63.41;99180.84;4992231;28;20466;-68
2021/07/12 06:36:33;;;;;;;7.57;4.35;;;;;;;19.55;63.71;99186.28;4991187;28;20409;-66
2021/07/12 06:38:58;;;;;;;5.88;3.10;;;;;;;19.63;62.80;99190.88;4991656;28;20435;-69
2021/07/12 06:41:23;;;;;;;5.55;3.50;;;;;;;19.71;62.07;99183.00;4991480;28;20534;-67
2021/07/12 06:43:51;;;;;;;7.15;3.47;;;;;;;19.75;62.36;99183.56;4990701;28;20046;-69
2021/07/12 06:46:17;;;;;;;7.60;3.35;;;;;;;19.81;62.23;99182.94;4991069;28;20211;-68
2021/07/12 06:48:43;;;;;;;5.07;3.38;;;;;;;19.90;62.04;99177.53;4994103;28;20136;-68
2021/07/12 06:51:09;;;;;;;6.03;4.20;;;;;;;19.95;62.12;99182.44;5010589;28;20038;-67
2021/07/12 06:53:35;;;;;;;11.57;3.53;;;;;;;20.02;61.80;99185.34;5010821;28;20034;-70
2021/07/12 06:56:01;;;;;;;5.57;3.03;;;;;;;20.14;61.61;99176.13;5010643;28;20111;-68
2021/07/12 06:58:27;;;;;;;6.25;2.83;;;;;;;20.25;61.55;99180.41;5010696;28;20038;-68
2021/07/12 07:00:52;;;;;;;9.98;4.10;;;;;;;20.45;60.77;99176.56;5010347;28;20433;-68
2021/07/12 07:03:18;;;;;;;14.60;4.13;;;;;;;20.64;59.84;99164.88;5011180;28;20069;-68
2021/07/12 07:05:43;;;;;;;8.00;4.60;;;;;;;20.80;59.89;99159.66;4993197;28;20634;-66
2021/07/12 07:08:08;;;;;;;6.80;4.18;;;;;;;20.88;60.08;99150.00;5010550;28;20324;-65
2021/07/12 07:10:34;;;;;;;6.10;4.13;;;;;;;20.89;59.50;99154.34;5010884;28;20036;-66
2021/07/12 07:12:59;;;;;;;11.57;3.72;;;;;;;21.05;59.41;99159.00;5010347;28;20036;-65
2021/07/12 07:15:24;;;;;;;14.43;4.85;;;;;;;21.17;58.16;99163.91;4992923;28;20034;-66
2021/07/12 07:17:49;;;;;;;6.05;3.72;;;;;;;21.30;58.29;99160.81;4992885;28;20037;-66
2021/07/12 07:20:15;;;;;;;6.03;3.45;;;;;;;21.50;57.10;99153.38;5010865;28;20046;-68
2021/07/12 07:22:41;;;;;;;5.68;3.75;;;;;;;21.45;57.18;99155.72;4993230;28;20038;-66
2021/07/12 07:25:06;;;;;;;17.33;4.03;;;;;;;21.58;57.22;99142.69;5010624;28;20041;-66
2021/07/12 07:27:32;;;;;;;10.68;3.95;;;;;;;21.76;56.97;99134.53;5010000;28;20057;-66
2021/07/12 07:29:58;;;;;;;11.15;4.68;;;;;;;22.16;56.04;99141.00;5010360;28;20084;-67
2021/07/12 07:32:23;;;;;;;8.60;3.55;;;;;;;22.44;54.38;99133.47;4992368;28;20065;-66
2021/07/12 07:34:48;;;;;;;30.05;6.15;;;;;;;23.10;53.54;99145.03;5010003;28;20101;-67
2021/07/12 07:37:14;;;;;;;9.48;4.07;;;;;;;23.58;51.46;99127.06;5009795;28;20056;-67
2021/07/12 07:39:40;;;;;;;10.35;3.55;;;;;;;23.68;50.87;99118.75;4992338;28;20046;-68
2021/07/12 07:42:06;;;;;;;20.42;5.32;;;;;;;23.89;50.84;99120.84;5009880;28;20034;-66
2021/07/12 07:44:32;;;;;;;5.03;2.40;;;;;;;24.15;48.81;99117.00;5006730;28;20026;-68
2021/07/12 07:46:57;;;;;;;14.13;5.90;;;;;;;24.50;47.70;99110.19;5009574;28;20494;-67
2021/07/12 07:49:23;;;;;;;10.55;4.05;;;;;;;24.79;48.25;99113.97;5009995;28;20038;-68
2021/07/12 07:51:49;;;;;;;5.10;3.30;;;;;;;24.90;48.45;99097.31;5009621;28;20025;-68
2021/07/12 07:54:14;;;;;;;7.18;3.65;;;;;;;25.04;47.10;99103.75;4991659;28;20038;-68
2021/07/12 07:56:40;;;;;;;10.05;3.65;;;;;;;25.06;46.78;99089.06;5008935;28;20056;-68
2021/07/12 07:59:06;;;;;;;37.42;6.05;;;;;;;25.30;47.43;99089.81;5010096;28;20046;-68
2021/07/12 08:01:31;;;;;;;11.35;3.55;;;;;;;25.38;46.62;99083.50;5006265;28;20037;-67
2021/07/12 08:03:57;;;;;;;6.88;3.33;;;;;;;25.39;46.37;99080.59;5007782;28;20161;-68
2021/07/12 08:06:23;;;;;;;8.48;3.08;;;;;;;25.30;45.47;99078.19;5003362;28;20441;-68
2021/07/12 08:08:49;;;;;;;15.48;3.55;;;;;;;25.19;44.63;99072.25;5004418;28;20048;-68
2021/07/12 08:11:15;;;;;;;5.32;2.33;;;;;;;24.80;45.28;99065.22;4981358;28;20368;-68
2021/07/12 08:13:40;;;;;;;5.95;3.10;;;;;;;24.92;44.45;99062.09;4999453;28;20042;-68
2021/07/12 08:16:06;;;;;;;4.05;2.10;;;;;;;25.21;44.17;99054.00;4999321;28;20070;-68
2021/07/12 08:18:31;;;;;;;7.30;2.85;;;;;;;25.11;45.01;99050.75;4997658;28;20080;-67
2021/07/12 08:20:57;;;;;;;3.63;2.85;;;;;;;25.09;47.01;99044.69;4980843;28;20038;-67
2021/07/12 08:23:26;;;;;;;4.72;2.70;;;;;;;25.13;47.42;99039.75;4998370;28;20133;-66
2021/07/12 08:25:51;;;;;;;9.23;2.63;;;;;;;24.95;45.86;99048.22;4999717;28;20037;-67
2021/07/12 08:28:17;;;;;;;5.90;2.53;;;;;;;24.88;45.75;99042.72;4999218;28;20030;-66
2021/07/12 08:30:45;;;;;;;10.77;2.85;;;;;;;25.10;47.41;99046.34;4999552;28;20113;-69
2021/07/12 08:33:11;;;;;;;4.75;2.13;;;;;;;25.25;44.35;99035.56;4986829;28;20537;-68
2021/07/12 08:35:36;;;;;;;3.55;2.08;;;;;;;25.38;42.15;99038.44;4994500;28;20397;-67
2021/07/12 08:38:03;;;;;;;3.33;2.45;;;;;;;25.41;41.67;99035.38;4995108;28;20069;-68
2021/07/12 08:40:30;;;;;;;3.97;2.25;;;;;;;25.40;41.45;99025.59;4995902;28;20042;-67
2021/07/12 08:42:57;;;;;;;3.35;2.13;;;;;;;25.28;41.64;99035.22;4992080;28;20038;-67
2021/07/12 08:45:23;;;;;;;15.27;2.97;;;;;;;25.13;41.43;99027.13;4994847;28;20057;-67
2021/07/12 08:47:49;;;;;;;2.78;2.17;;;;;;;25.20;41.02;99032.59;5001190;28;20695;-67
2021/07/12 08:50:15;;;;;;;4.07;2.45;;;;;;;25.39;41.08;99031.19;5003218;28;20056;-67
2021/07/12 08:52:45;;;;;;;4.90;2.05;;;;;;;25.41;40.31;99029.97;4996066;28;20746;-66
2021/07/12 08:55:12;;;;;;;2.35;1.80;;;;;;;25.55;40.19;99022.00;4978875;28;20042;-67
2021/07/12 08:57:38;;;;;;;5.72;2.30;;;;;;;25.49;40.49;99023.63;4997876;28;20497;-67
2021/07/12 09:00:06;;;;;;;5.05;2.28;;;;;;;25.54;39.14;99025.75;5001377;28;20050;-67
2021/07/12 09:02:34;;;;;;;3.80;2.20;;;;;;;25.70;39.67;99023.66;4983080;28;20042;-67
2021/07/12 09:05:00;;;;;;;3.35;2.53;;;;;;;26.32;37.71;99016.75;4992291;28;20042;-68
2021/07/12 09:07:27;;;;;;;2.80;1.90;;;;;;;26.75;36.46;99018.53;5006075;28;20124;-68
2021/07/12 09:09:57;;;;;;;2.28;1.63;;;;;;;26.66;36.84;99015.16;5006716;28;20036;-68
2021/07/12 09:12:23;;;;;;;2.58;1.92;;;;;;;26.68;37.34;99014.94;4998234;28;20041;-66
2021/07/12 09:15:17;;;;;;;5.68;1.70;;;;;;;26.36;38.07;99009.09;4992284;28;20037;-68
2021/07/12 09:17:46;;;;;;;2.03;1.65;;;;;;;26.49;38.78;99014.59;4994094;28;20116;-67
2021/07/12 09:20:23;;;;;;;2.63;1.60;;;;;;;26.40;38.32;99012.25;4998559;28;20041;-68
2021/07/12 09:22:48;;;;;;;2.38;1.67;;;;;;;26.22;38.90;99008.16;5010902;28;20038;-76
2021/07/12 09:25:14;;;;;;;2.78;2.28;;;;;;;26.06;39.06;99009.25;5005348;28;20146;-77
2021/07/12 09:27:42;;;;;;;4.35;1.70;;;;;;;25.80;39.31;99009.84;5006525;28;20045;-75
2021/07/12 09:30:14;;;;;;;5.00;2.45;;;;;;;25.65;40.46;99017.16;5041216;28;20059;-77
2021/07/12 09:32:42;;;;;;;2.83;2.05;;;;;;;25.36;40.77;99015.38;4998149;28;20042;-75
2021/07/12 09:35:14;;;;;;;6.20;2.40;;;;;;;25.17;42.02;99017.63;4986663;28;20041;-77
2021/07/12 09:37:43;;;;;;;3.45;1.80;;;;;;;25.05;41.87;99011.00;4991953;28;20031;-78
2021/07/12 09:40:14;;;;;;;2.65;1.67;;;;;;;24.99;42.02;99011.78;4985193;28;20042;-78
2021/07/12 09:42:45;;;;;;;4.93;3.08;;;;;;;24.88;43.36;99014.94;5003322;28;20034;-76
2021/07/12 09:45:12;;;;;;;2.38;1.88;;;;;;;24.82;43.76;99005.75;5007846;28;20061;-77
2021/07/12 09:47:41;;;;;;;3.13;2.20;;;;;;;24.93;43.64;99002.56;5008251;28;20038;-76
2021/07/12 09:50:09;;;;;;;2.90;2.10;;;;;;;25.10;42.98;98999.66;4996052;28;20038;-75
2021/07/12 09:52:46;;;;;;;2.17;1.85;;;;;;;24.91;43.00;99001.94;5009753;28;20037;-77
2021/07/12 09:55:24;;;;;;;3.58;2.28;;;;;;;24.86;43.38;99007.06;5013733;28;20118;-74
2021/07/12 09:58:14;;;;;;;4.38;2.65;;;;;;;24.96;43.11;99002.22;4986919;28;20506;-74
2021/07/12 10:00:40;;;;;;;4.28;2.30;;;;;;;25.19;43.48;99006.66;4995558;28;20037;-75
2021/07/12 10:03:06;;;;;;;3.65;2.28;;;;;;;25.39;43.37;98998.81;5000596;28;20129;-76
2021/07/12 10:05:31;;;;;;;4.03;2.63;;;;;;;25.51;43.80;98996.44;4980124;28;20124;-75
2021/07/12 10:07:57;;;;;;;10.40;3.53;;;;;;;25.67;45.43;99005.13;4990676;28;20038;-77
2021/07/12 10:10:23;;;;;;;4.00;2.70;;;;;;;25.54;46.31;99009.56;4993008;28;20045;-77
2021/07/12 10:12:48;;;;;;;4.28;3.03;;;;;;;25.42;46.96;99011.91;4996751;28;20038;-75
2021/07/12 10:15:16;;;;;;;5.28;3.10;;;;;;;25.35;47.04;99008.28;5003713;28;20040;-76
2021/07/12 10:17:46;;;;;;;3.92;3.20;;;;;;;25.47;47.29;99010.34;4989699;28;20038;-76
2021/07/12 10:20:13;;;;;;;5.15;3.38;;;;;;;25.36;47.94;99012.69;4995762;28;20038;-76
2021/07/12 10:22:42;;;;;;;6.60;3.65;;;;;;;25.26;47.96;99012.97;5003767;28;20069;-76
2021/07/12 10:25:10;;;;;;;7.13;3.72;;;;;;;25.23;48.19;99014.19;4988485;28;20034;-77
2021/07/12 10:27:56;;;;;;;4.53;3.28;;;;;;;25.13;47.90;99010.06;5001704;28;20133;-77
2021/07/12 10:30:23;;;;;;;5.07;3.50;;;;;;;24.95;48.40;99000.50;5003171;28;20045;-76
2021/07/12 10:32:54;;;;;;;9.38;4.15;;;;;;;24.87;48.28;99005.19;4987377;28;20054;-76
2021/07/12 10:35:43;;;;;;;4.60;3.20;;;;;;;24.79;48.66;99006.94;4969753;28;20282;-78
2021/07/12 10:38:12;;;;;;;3.83;2.75;;;;;;;24.75;49.24;99008.34;5003386;28;20061;-74
2021/07/12 10:40:55;;;;;;;4.50;3.83;;;;;;;24.91;48.52;99001.06;5006830;28;20038;-78
2021/07/12 10:43:42;;;;;;;5.38;3.10;;;;;;;24.96;49.77;98991.41;4991226;28;20782;-76
2021/07/12 10:46:09;;;;;;;4.95;2.92;;;;;;;24.99;47.95;99001.00;5002147;28;20462;-75
2021/07/12 10:48:37;;;;;;;4.20;2.97;;;;;;;24.92;47.87;98991.97;5000323;28;20513;-76
2021/07/12 10:51:23;;;;;;;4.53;2.78;;;;;;;24.92;47.47;98998.19;4973235;28;20038;-77
2021/07/12 10:54:09;;;;;;;6.07;2.72;;;;;;;24.70;48.31;98994.59;4996793;28;20402;-76
2021/07/12 10:56:59;;;;;;;3.05;2.40;;;;;;;24.84;48.04;99003.69;4994885;28;20124;-77
2021/07/12 10:59:38;;;;;;;7.63;3.30;;;;;;;24.79;47.30;98998.88;4987188;28;20525;-77
2021/07/12 11:02:24;;;;;;;5.95;3.20;;;;;;;24.78;48.10;98996.34;4994488;28;20074;-75
2021/07/12 11:05:13;;;;;;;4.00;2.55;;;;;;;24.66;47.38;99000.53;4979352;28;20141;-76
2021/07/12 11:07:47;;;;;;;7.95;2.58;;;;;;;24.59;47.14;99005.84;5000250;28;20695;-77
2021/07/12 11:10:24;;;;;;;4.90;2.30;;;;;;;24.49;46.74;99005.25;4990350;28;20750;-73
2021/07/12 11:12:54;;;;;;;3.50;2.65;;;;;;;24.57;46.26;99002.50;4998090;28;20103;-73
2021/07/12 11:15:22;;;;;;;5.78;2.28;;;;;;;24.70;46.59;99005.38;4975931;28;20053;-74
2021/07/12 11:17:48;;;;;;;8.02;2.88;;;;;;;24.64;46.46;99001.56;4991935;28;20034;-73
2021/07/12 11:20:14;;;;;;;6.15;2.17;;;;;;;24.64;46.74;98998.88;4997137;28;20061;-74
2021/07/12 11:22:53;;;;;;;4.35;2.30;;;;;;;24.71;46.39;99000.81;4993773;28;20046;-76
2021/07/12 11:25:40;;;;;;;3.75;2.63;;;;;;;24.59;46.22;98998.59;4974604;28;20030;-73
2021/07/12 11:28:08;;;;;;;3.20;2.28;;;;;;;24.53;46.93;98993.91;4995739;28;20501;-76
2021/07/12 11:30:35;;;;;;;3.97;2.65;;;;;;;24.56;47.23;98993.56;4991584;28;20037;-72
2021/07/12 11:33:01;;;;;;;5.10;2.65;;;;;;;24.57;46.67;99003.31;4971082;28;20042;-73
2021/07/12 11:35:27;;;;;;;4.18;2.13;;;;;;;24.45;47.28;99004.75;5000075;28;20121;-73
2021/07/12 11:37:58;;;;;;;2.22;1.88;;;;;;;24.50;46.24;98993.47;4989648;28;20121;-73